createdAt,value
2023-05-21T00:01:01.411Z,16.90
2023-05-21T00:03:32.284Z,17.00
2023-05-21T00:06:03.657Z,16.90
2023-05-21T00:08:31.926Z,16.90
2023-05-21T00:10:59.948Z,16.90
2023-05-21T00:13:30.506Z,16.90
2023-05-21T00:15:58.487Z,16.90
2023-05-21T00:18:26.460Z,17.00
2023-05-21T00:20:54.886Z,16.90
2023-05-21T00:23:26.233Z,16.90
2023-05-21T00:25:54.657Z,17.00
2023-05-21T00:28:22.589Z,16.90
2023-05-21T00:30:51.226Z,16.90
2023-05-21T00:33:22.125Z,16.90
2023-05-21T00:35:50.402Z,16.90
2023-05-21T00:38:19.408Z,16.90
2023-05-21T00:40:48.723Z,16.90
2023-05-21T00:43:17.734Z,16.90
2023-05-21T00:45:46.798Z,16.90
2023-05-21T00:48:15.948Z,16.80
2023-05-21T00:50:44.951Z,16.80
2023-05-21T00:53:15.503Z,16.80
2023-05-21T00:55:43.850Z,16.80
2023-05-21T00:58:14.016Z,16.70
2023-05-21T01:00:42.124Z,16.80
2023-05-21T01:03:11.009Z,16.70
2023-05-21T01:05:39.303Z,16.70
2023-05-21T01:08:07.682Z,16.70
2023-05-21T01:10:36.131Z,16.70
2023-05-21T01:13:06.296Z,16.60
2023-05-21T01:15:39.243Z,16.70
2023-05-21T01:18:07.721Z,16.60
2023-05-21T01:20:36.297Z,16.60
2023-05-21T01:23:08.859Z,16.60
2023-05-21T01:25:37.755Z,16.60
2023-05-21T01:28:07.671Z,16.60
2023-05-21T01:30:37.805Z,16.50
2023-05-21T01:33:13.032Z,16.50
2023-05-21T01:35:46.540Z,16.50
2023-05-21T01:38:24.659Z,16.50
2023-05-21T01:40:58.763Z,16.50
2023-05-21T01:43:30.631Z,16.40
2023-05-21T01:46:00.794Z,16.50
2023-05-21T01:48:35.823Z,16.40
2023-05-21T01:51:06.572Z,16.40
2023-05-21T01:53:38.980Z,16.40
2023-05-21T01:56:11.274Z,16.40
2023-05-21T01:58:39.898Z,16.40
2023-05-21T02:01:08.761Z,16.40
2023-05-21T02:03:36.987Z,16.30
2023-05-21T02:06:06.549Z,16.30
2023-05-21T02:08:34.833Z,16.30
2023-05-21T02:11:04.162Z,16.30
2023-05-21T02:13:32.392Z,16.30
2023-05-21T02:18:57.507Z,16.20
2023-05-21T02:21:27.458Z,16.20
2023-05-21T02:23:55.771Z,16.20
2023-05-21T02:26:25.638Z,16.20
2023-05-21T02:28:54.011Z,16.20
2023-05-21T02:31:22.317Z,16.20
2023-05-21T02:33:50.668Z,16.20
2023-05-21T02:36:19.254Z,16.10
2023-05-21T02:38:47.754Z,16.10
2023-05-21T02:41:16.333Z,16.10
2023-05-21T02:43:46.572Z,16.10
2023-05-21T02:46:15.144Z,16.00
2023-05-21T02:48:43.238Z,16.10
2023-05-21T02:51:11.853Z,16.10
2023-05-21T02:53:40.931Z,16.10
2023-05-21T02:56:09.695Z,16.10
2023-05-21T02:58:37.684Z,16.10
2023-05-21T03:01:07.103Z,16.10
2023-05-21T03:03:35.714Z,16.10
2023-05-21T03:06:04.585Z,16.10
2023-05-21T03:08:33.128Z,16.20
2023-05-21T03:11:01.570Z,16.20
2023-05-21T03:13:29.878Z,16.20
2023-05-21T03:15:57.932Z,16.20
2023-05-21T03:18:27.625Z,16.10
2023-05-21T03:20:56.208Z,16.20
2023-05-21T03:23:24.424Z,16.20
2023-05-21T03:25:53.658Z,16.20
2023-05-21T03:28:22.926Z,16.20
2023-05-21T03:30:52.273Z,16.20
2023-05-21T03:33:41.054Z,16.10
2023-05-21T03:36:21.045Z,16.20
2023-05-21T03:38:49.122Z,16.20
2023-05-21T03:41:17.182Z,16.20
2023-05-21T03:43:49.971Z,16.10
2023-05-21T03:46:18.809Z,16.10
2023-05-21T03:49:17.494Z,16.10
2023-05-21T03:51:46.497Z,16.10
2023-05-21T03:54:17.802Z,16.10
2023-05-21T03:56:47.084Z,16.10
2023-05-21T03:59:15.452Z,16.10
2023-05-21T04:01:46.566Z,16.10
2023-05-21T04:04:19.519Z,16.10
2023-05-21T04:06:48.614Z,16.10
2023-05-21T04:09:16.651Z,16.10
2023-05-21T04:11:44.612Z,16.10
2023-05-21T04:14:13.009Z,16.10
2023-05-21T04:16:43.969Z,16.10
2023-05-21T04:19:12.471Z,16.10
2023-05-21T04:21:45.059Z,16.10
2023-05-21T04:24:15.722Z,16.20
2023-05-21T04:26:50.454Z,16.20
2023-05-21T04:29:21.134Z,16.20
2023-05-21T04:31:50.701Z,16.20
2023-05-21T04:34:19.051Z,16.20
2023-05-21T04:36:49.893Z,16.30
2023-05-21T04:39:18.254Z,16.30
2023-05-21T04:41:48.076Z,16.30
2023-05-21T04:44:16.420Z,16.30
2023-05-21T04:46:47.136Z,16.30
2023-05-21T04:49:15.446Z,16.40
2023-05-21T04:51:44.313Z,16.40
2023-05-21T04:54:14.682Z,16.50
2023-05-21T04:56:42.785Z,16.50
2023-05-21T04:59:10.761Z,16.60
2023-05-21T05:01:39.435Z,16.60
2023-05-21T05:04:07.729Z,16.70
2023-05-21T05:06:37.290Z,16.70
2023-05-21T05:09:07.757Z,16.80
2023-05-21T05:11:37.649Z,16.80
2023-05-21T05:14:06.851Z,16.90
2023-05-21T05:16:35.593Z,17.00
2023-05-21T05:19:04.817Z,17.00
2023-05-21T05:21:33.952Z,17.10
2023-05-21T05:24:03.483Z,17.20
2023-05-21T05:26:33.368Z,17.20
2023-05-21T05:29:27.939Z,17.30
2023-05-21T05:31:55.943Z,17.40
2023-05-21T05:34:24.040Z,17.50
2023-05-21T05:36:52.089Z,17.70
2023-05-21T05:39:20.950Z,17.80
